createdAt,value
2019-01-04T00:00:48.415Z,26.60
2019-01-04T00:03:30.166Z,26.50
2019-01-04T00:06:11.591Z,26.40
2019-01-04T00:08:52.911Z,26.50
2019-01-04T00:14:34.071Z,26.10
2019-01-04T00:17:15.735Z,26.50
2019-01-04T00:19:55.351Z,26.40
2019-01-04T00:22:37.321Z,26.50
2019-01-04T00:25:18.596Z,26.40
2019-01-04T00:27:59.896Z,26.40
2019-01-04T00:30:42.567Z,26.40
2019-01-04T00:33:23.914Z,26.50
2019-01-04T00:36:05.228Z,26.50
2019-01-04T00:38:46.947Z,26.40
2019-01-04T00:41:28.120Z,26.50
2019-01-04T00:44:09.675Z,26.40
2019-01-04T00:46:50.931Z,26.50
2019-01-04T00:49:32.135Z,26.50
2019-01-04T00:52:13.643Z,26.40
2019-01-04T00:54:55.151Z,26.40
2019-01-04T00:57:36.567Z,26.40
2019-01-04T01:00:38.673Z,26.40
2019-01-04T01:03:20.246Z,26.30
2019-01-04T01:06:01.615Z,26.30
2019-01-04T01:08:43.544Z,26.30
2019-01-04T01:11:24.813Z,26.40
2019-01-04T01:14:06.111Z,26.40
2019-01-04T01:17:08.297Z,26.40
2019-01-04T01:19:49.610Z,26.40
2019-01-04T01:22:30.971Z,26.40
2019-01-04T01:25:13.190Z,26.40
2019-01-04T01:27:54.699Z,26.30
2019-01-04T01:30:36.215Z,26.40
2019-01-04T01:33:17.976Z,26.40
2019-01-04T01:35:59.245Z,26.30
2019-01-04T01:38:40.819Z,26.40
2019-01-04T01:41:22.811Z,26.30
2019-01-04T01:44:23.979Z,26.40
2019-01-04T01:47:05.675Z,26.60
2019-01-04T01:49:47.173Z,26.40
2019-01-04T01:52:28.528Z,26.30
2019-01-04T01:55:10.747Z,26.30
2019-01-04T01:57:52.247Z,26.30
2019-01-04T02:00:34.151Z,26.30
2019-01-04T02:03:15.623Z,26.30
2019-01-04T02:05:55.311Z,26.30
2019-01-04T02:08:34.908Z,26.30
2019-01-04T02:11:17.071Z,26.20
2019-01-04T02:13:58.368Z,26.30
2019-01-04T02:16:39.774Z,26.30
2019-01-04T02:19:19.394Z,26.30
2019-01-04T02:22:00.695Z,26.20
2019-01-04T02:24:41.876Z,26.20
2019-01-04T02:27:23.903Z,26.20
2019-01-04T02:30:05.299Z,26.30
2019-01-04T02:32:46.868Z,25.90
2019-01-04T02:35:28.251Z,26.20
2019-01-04T02:38:09.507Z,26.20
2019-01-04T02:40:51.562Z,26.20
2019-01-04T02:46:12.311Z,26.10
2019-01-04T02:48:53.583Z,26.20
2019-01-04T02:51:34.883Z,26.10
2019-01-04T02:54:14.610Z,26.10
2019-01-04T02:56:55.973Z,26.10
2019-01-04T02:59:37.470Z,26.00
2019-01-04T03:02:18.748Z,26.10
2019-01-04T03:05:00.312Z,25.90
2019-01-04T03:07:42.194Z,26.20
2019-01-04T03:10:23.491Z,26.10
2019-01-04T03:13:04.977Z,26.10
2019-01-04T03:15:46.834Z,26.10
2019-01-04T03:18:26.435Z,25.90
2019-01-04T03:21:08.520Z,25.80
2019-01-04T03:23:48.134Z,26.00
2019-01-04T03:26:29.313Z,26.10
2019-01-04T03:29:10.604Z,25.90
2019-01-04T03:31:51.977Z,25.80
2019-01-04T03:34:33.374Z,25.90
2019-01-04T03:37:14.993Z,26.00
2019-01-04T03:39:56.319Z,25.70
2019-01-04T03:42:38.424Z,25.90
2019-01-04T03:45:20.163Z,26.00
2019-01-04T03:48:01.400Z,26.00
2019-01-04T03:50:42.896Z,26.10
2019-01-04T03:53:24.343Z,25.80
2019-01-04T03:56:05.597Z,25.60
2019-01-04T03:58:46.992Z,25.90
2019-01-04T04:01:28.588Z,25.90
2019-01-04T04:04:09.983Z,25.80
2019-01-04T04:06:52.128Z,25.80
2019-01-04T04:09:33.491Z,25.90
2019-01-04T04:12:14.887Z,25.80
2019-01-04T04:14:56.123Z,25.60
2019-01-04T04:17:37.630Z,25.70
2019-01-04T04:20:19.909Z,25.90
2019-01-04T04:23:01.143Z,26.40
2019-01-04T04:25:42.580Z,25.70
2019-01-04T04:28:24.689Z,25.80
2019-01-04T04:31:05.839Z,25.80
2019-01-04T04:33:47.204Z,25.80
2019-01-04T04:36:28.699Z,25.70
2019-01-04T04:39:09.922Z,25.80
2019-01-04T04:41:51.672Z,25.70
2019-01-04T04:44:32.875Z,25.80
2019-01-04T04:47:14.112Z,25.70
2019-01-04T04:49:55.503Z,25.80
2019-01-04T04:52:37.171Z,25.70
2019-01-04T04:55:18.676Z,25.50
2019-01-04T04:57:59.973Z,25.70
2019-01-04T05:00:41.347Z,25.80
2019-01-04T05:03:23.099Z,25.50
2019-01-04T05:06:04.456Z,25.60
2019-01-04T05:08:45.780Z,25.60
2019-01-04T05:11:27.304Z,25.50
2019-01-04T05:14:08.755Z,25.60
2019-01-04T05:16:50.023Z,25.50
2019-01-04T05:19:32.136Z,25.60
2019-01-04T05:22:13.860Z,25.50
2019-01-04T05:24:55.576Z,25.50
2019-01-04T05:27:37.031Z,25.50
2019-01-04T05:30:16.776Z,25.50
2019-01-04T05:32:58.824Z,25.40
2019-01-04T05:35:40.899Z,25.40
2019-01-04T05:38:22.481Z,25.40
2019-01-04T05:41:03.723Z,25.40
2019-01-04T05:43:43.359Z,25.40
2019-01-04T05:46:26.723Z,25.40
2019-01-04T05:49:09.207Z,25.30
2019-01-04T05:51:50.687Z,25.10
2019-01-04T05:54:32.015Z,25.40
2019-01-04T05:57:13.537Z,25.20
2019-01-04T05:59:54.757Z,25.10
2019-01-04T06:02:36.241Z,25.10
2019-01-04T06:05:18.672Z,25.10
2019-01-04T06:08:01.075Z,25.00
2019-01-04T06:10:43.626Z,25.00
2019-01-04T06:13:25.815Z,25.00
2019-01-04T06:16:08.180Z,24.90
2019-01-04T06:19:09.348Z,24.80
2019-01-04T06:21:51.303Z,25.00
2019-01-04T06:24:33.191Z,24.90
2019-01-04T06:27:15.880Z,24.90
2019-01-04T06:30:01.682Z,25.00
2019-01-04T06:32:43.881Z,24.90
2019-01-04T06:35:25.581Z,24.90
2019-01-04T06:38:07.371Z,25.00
2019-01-04T06:40:47.922Z,24.90
2019-01-04T06:43:29.906Z,24.80
2019-01-04T06:46:12.119Z,24.90
2019-01-04T06:48:53.609Z,24.50
2019-01-04T06:51:36.206Z,24.50
2019-01-04T06:54:18.225Z,24.40
2019-01-04T06:57:00.076Z,24.60
2019-01-04T06:59:41.511Z,24.70
2019-01-04T07:02:24.337Z,24.00
2019-01-04T07:05:06.610Z,24.40
2019-01-04T07:07:48.124Z,24.60
2019-01-04T07:10:29.380Z,23.80
2019-01-04T07:13:10.964Z,23.60
2019-01-04T07:15:52.207Z,23.40
2019-01-04T07:18:33.642Z,23.30
2019-01-04T07:21:15.707Z,23.30
2019-01-04T07:23:56.878Z,23.00
2019-01-04T07:26:38.136Z,22.90
2019-01-04T07:29:19.424Z,22.90
2019-01-04T07:31:59.099Z,22.80
2019-01-04T07:34:41.094Z,22.40
2019-01-04T07:37:22.967Z,23.10
2019-01-04T07:40:04.107Z,21.90
2019-01-04T07:42:43.719Z,22.10
2019-01-04T07:45:25.692Z,21.60
2019-01-04T07:48:07.445Z,21.80
2019-01-04T07:50:47.051Z,22.00
2019-01-04T07:53:29.115Z,21.80
2019-01-04T07:56:10.626Z,21.90
2019-01-04T07:58:51.820Z,22.40
2019-01-04T08:04:32.735Z,22.20
2019-01-04T08:07:12.336Z,22.20
2019-01-04T08:09:54.132Z,22.20
2019-01-04T08:12:33.858Z,22.20
2019-01-04T08:15:15.855Z,22.20
2019-01-04T08:17:55.518Z,22.10
2019-01-04T08:20:36.797Z,22.00
2019-01-04T08:23:18.223Z,22.30
2019-01-04T08:25:59.771Z,22.20
2019-01-04T08:28:41.083Z,22.40
2019-01-04T08:31:22.315Z,22.50
2019-01-04T08:34:02.007Z,22.10
2019-01-04T08:36:43.835Z,22.40
2019-01-04T08:39:25.133Z,22.30
2019-01-04T08:42:07.043Z,22.40
2019-01-04T08:44:48.267Z,22.50
2019-01-04T08:47:29.580Z,22.50
2019-01-04T08:50:11.203Z,22.60
2019-01-04T08:58:08.538Z,21.90
2019-01-04T09:00:50.591Z,22.50
2019-01-04T09:03:31.843Z,22.60
2019-01-04T09:09:34.812Z,22.30
2019-01-04T09:12:16.859Z,22.30
2019-01-04T09:14:59.056Z,22.40
2019-01-04T09:17:40.331Z,22.20
2019-01-04T09:20:21.592Z,22.20
2019-01-04T09:23:03.023Z,22.10
2019-01-04T09:25:44.351Z,22.30
2019-01-04T09:28:25.827Z,22.00
2019-01-04T09:31:05.499Z,22.00
2019-01-04T09:33:47.459Z,22.10
2019-01-04T09:36:28.679Z,21.70
2019-01-04T09:39:10.330Z,21.70
2019-01-04T09:41:50.008Z,21.80
2019-01-04T09:44:31.843Z,21.60
2019-01-04T09:47:13.232Z,21.70
2019-01-04T09:49:52.888Z,21.90
2019-01-04T09:52:32.479Z,21.80
2019-01-04T09:55:14.541Z,21.60
2019-01-04T09:57:56.617Z,21.30
2019-01-04T10:00:38.048Z,21.60
2019-01-04T10:03:19.507Z,21.60
2019-01-04T10:06:01.219Z,21.50
2019-01-04T10:08:44.963Z,21.60
2019-01-04T10:11:26.675Z,21.60
2019-01-04T10:14:07.951Z,21.70
2019-01-04T10:16:49.205Z,21.70
2019-01-04T10:19:31.274Z,21.80
2019-01-04T10:22:13.199Z,21.70
2019-01-04T10:24:54.557Z,21.80
2019-01-04T10:27:35.854Z,21.90
2019-01-04T10:30:17.129Z,22.00
2019-01-04T10:32:58.431Z,21.90
2019-01-04T10:35:39.831Z,22.10
2019-01-04T10:38:21.119Z,22.20
2019-01-04T10:41:02.591Z,22.30
2019-01-04T10:43:43.883Z,22.30
2019-01-04T10:46:23.536Z,22.30
2019-01-04T10:49:05.652Z,22.60
2019-01-04T10:51:48.077Z,22.40
2019-01-04T10:54:30.377Z,22.40
2019-01-04T10:57:12.299Z,22.40
2019-01-04T10:59:54.103Z,22.50
2019-01-04T11:02:36.152Z,22.50
2019-01-04T11:05:15.871Z,22.60
2019-01-04T11:07:57.761Z,22.70
2019-01-04T11:10:40.425Z,22.70
2019-01-04T11:13:22.503Z,22.80
2019-01-04T11:16:03.739Z,22.80
2019-01-04T11:18:45.320Z,22.80
2019-01-04T11:21:26.567Z,22.90
2019-01-04T11:24:07.811Z,22.70
2019-01-04T11:26:51.611Z,22.70
2019-01-04T11:29:33.130Z,22.80
2019-01-04T11:32:15.159Z,22.90
2019-01-04T11:34:56.372Z,23.00
2019-01-04T11:37:37.603Z,23.00
2019-01-04T11:43:00.372Z,22.80
2019-01-04T11:45:41.867Z,23.10
2019-01-04T11:48:23.479Z,23.20
2019-01-04T11:51:05.063Z,23.20
2019-01-04T11:53:46.455Z,23.20
2019-01-04T11:56:27.707Z,23.30
2019-01-04T11:59:09.732Z,23.30
2019-01-04T12:01:51.692Z,23.30
2019-01-04T12:04:33.207Z,23.40
2019-01-04T12:07:12.856Z,23.40
2019-01-04T12:09:54.811Z,23.50
2019-01-04T12:12:34.449Z,23.40
2019-01-04T12:15:16.535Z,23.50
2019-01-04T12:17:57.779Z,23.60
2019-01-04T12:20:45.285Z,23.50
2019-01-04T12:23:23.435Z,23.50
2019-01-04T12:26:04.567Z,23.50
2019-01-04T12:28:46.572Z,23.70
2019-01-04T12:31:27.890Z,23.70
2019-01-04T12:34:09.125Z,23.60
2019-01-04T12:36:48.843Z,23.70
2019-01-04T12:42:11.759Z,24.30
2019-01-04T12:44:53.739Z,23.80
2019-01-04T12:47:35.010Z,23.70
2019-01-04T12:50:16.266Z,23.80
2019-01-04T12:52:58.190Z,23.70
2019-01-04T12:55:39.495Z,23.70
2019-01-04T12:58:19.207Z,23.80
2019-01-04T13:01:00.463Z,23.80
2019-01-04T13:03:42.024Z,23.80
2019-01-04T13:06:23.235Z,23.80
2019-01-04T13:12:04.544Z,24.30
2019-01-04T13:18:07.659Z,23.80
2019-01-04T13:20:49.499Z,23.90
2019-01-04T13:23:30.944Z,24.00
2019-01-04T13:26:10.551Z,24.00
2019-01-04T13:28:52.426Z,24.00
2019-01-04T13:31:33.719Z,24.00
2019-01-04T13:34:15.239Z,24.00
2019-01-04T13:36:56.481Z,24.00
2019-01-04T13:39:37.783Z,24.00
2019-01-04T13:42:19.227Z,24.10
2019-01-04T13:45:00.655Z,24.00
2019-01-04T13:47:42.139Z,24.00
2019-01-04T13:50:23.348Z,24.10
2019-01-04T13:53:05.399Z,24.10
2019-01-04T13:55:47.427Z,24.10
2019-01-04T13:58:28.924Z,24.10
2019-01-04T14:01:10.831Z,23.90
2019-01-04T14:03:50.509Z,26.70
2019-01-04T14:06:32.347Z,27.20
2019-01-04T14:09:13.939Z,27.60
2019-01-04T14:11:53.444Z,28.40
2019-01-04T14:14:35.147Z,28.10
2019-01-04T14:17:17.408Z,28.20
2019-01-04T14:19:58.734Z,27.10
2019-01-04T14:22:39.970Z,28.50
2019-01-04T14:25:21.327Z,28.80
2019-01-04T14:28:03.565Z,28.60
2019-01-04T14:30:45.143Z,28.70
2019-01-04T14:33:26.347Z,29.50
2019-01-04T14:36:07.940Z,29.30
2019-01-04T14:38:50.016Z,29.90
2019-01-04T14:41:31.632Z,30.00
2019-01-04T14:44:13.703Z,30.20
2019-01-04T14:46:55.723Z,29.60
2019-01-04T14:49:37.022Z,29.80
2019-01-04T14:54:57.399Z,31.00
2019-01-04T14:57:38.711Z,29.70
2019-01-04T15:00:20.076Z,27.30
2019-01-04T15:03:01.751Z,28.90
2019-01-04T15:05:42.932Z,29.60
2019-01-04T15:08:24.463Z,29.70
2019-01-04T15:11:06.631Z,29.50
2019-01-04T15:13:48.076Z,27.20
2019-01-04T15:16:29.447Z,27.90
2019-01-04T15:19:10.774Z,29.00
2019-01-04T15:21:51.992Z,29.00
2019-01-04T15:24:33.631Z,29.70
2019-01-04T15:27:15.042Z,29.60
2019-01-04T15:29:56.159Z,30.00
2019-01-04T15:32:37.671Z,30.50
2019-01-04T15:35:19.019Z,30.00
2019-01-04T15:37:58.651Z,30.00
2019-01-04T15:40:38.308Z,30.20
2019-01-04T15:43:20.211Z,30.20
2019-01-04T15:46:01.809Z,30.20
2019-01-04T15:48:43.151Z,30.30
2019-01-04T15:51:24.391Z,30.60
2019-01-04T15:54:05.635Z,30.30
2019-01-04T15:56:46.975Z,30.30
2019-01-04T15:59:26.623Z,30.00
2019-01-04T16:02:08.799Z,29.60
2019-01-04T16:04:50.087Z,29.80
2019-01-04T16:07:31.413Z,29.80
2019-01-04T16:10:13.531Z,29.90
2019-01-04T16:12:55.026Z,30.30
2019-01-04T16:15:36.508Z,33.70
2019-01-04T16:18:18.256Z,34.60
2019-01-04T16:20:59.474Z,34.80
2019-01-04T16:23:41.191Z,35.20
2019-01-04T16:26:22.576Z,35.10
2019-01-04T16:29:02.130Z,35.30
2019-01-04T16:31:44.312Z,35.90
2019-01-04T16:34:23.887Z,36.00
2019-01-04T16:37:05.826Z,36.10
2019-01-04T16:39:46.999Z,36.40
2019-01-04T16:42:28.567Z,36.40
2019-01-04T16:45:10.090Z,36.70
2019-01-04T16:47:51.419Z,36.80
2019-01-04T16:50:33.007Z,37.00
2019-01-04T16:53:14.299Z,36.70
2019-01-04T16:55:55.715Z,36.80
2019-01-04T16:58:37.442Z,36.60
2019-01-04T17:01:18.691Z,37.20
2019-01-04T17:04:00.271Z,33.20
2019-01-04T17:06:41.663Z,32.20
2019-01-04T17:09:23.015Z,35.40
2019-01-04T17:12:04.565Z,34.90
2019-01-04T17:14:45.815Z,35.90
2019-01-04T17:17:27.264Z,36.70
2019-01-04T17:20:08.829Z,36.60
2019-01-04T17:22:50.347Z,36.60
2019-01-04T17:25:31.584Z,36.40
2019-01-04T17:28:12.907Z,33.20
2019-01-04T17:30:54.779Z,34.70
2019-01-04T17:33:36.851Z,36.20
2019-01-04T17:36:18.103Z,36.70
2019-01-04T17:38:59.546Z,36.80
2019-01-04T17:41:40.911Z,37.00
2019-01-04T17:44:20.539Z,37.00
2019-01-04T17:47:01.764Z,36.90
2019-01-04T17:49:43.295Z,37.20
2019-01-04T17:52:22.922Z,37.20
2019-01-04T17:55:04.051Z,37.00
2019-01-04T17:57:45.523Z,37.30
2019-01-04T18:00:26.835Z,37.20
2019-01-04T18:03:08.043Z,37.00
2019-01-04T18:05:49.527Z,37.50
2019-01-04T18:08:31.102Z,37.20
2019-01-04T18:11:12.220Z,37.50
2019-01-04T18:13:54.597Z,37.60
2019-01-04T18:16:36.751Z,37.50
2019-01-04T18:19:18.555Z,37.30
2019-01-04T18:22:00.076Z,37.30
2019-01-04T18:24:41.567Z,37.30
2019-01-04T18:27:22.986Z,37.70
2019-01-04T18:30:04.779Z,37.10
2019-01-04T18:32:47.167Z,37.10
2019-01-04T18:35:28.429Z,37.10
2019-01-04T18:38:09.979Z,37.30
2019-01-04T18:40:51.223Z,37.30
2019-01-04T18:43:30.883Z,37.00
2019-01-04T18:46:12.796Z,36.90
2019-01-04T18:48:52.448Z,36.90
2019-01-04T18:51:34.078Z,37.40
2019-01-04T18:54:15.603Z,37.00
2019-01-04T18:56:57.719Z,37.30
2019-01-04T18:59:39.675Z,37.20
2019-01-04T19:02:21.426Z,37.40
2019-01-04T19:05:02.943Z,37.30
2019-01-04T19:07:42.616Z,37.10
2019-01-04T19:10:22.348Z,37.30
2019-01-04T19:13:04.043Z,37.30
2019-01-04T19:15:45.456Z,37.30
2019-01-04T19:18:25.118Z,37.20
2019-01-04T19:21:06.979Z,37.20
2019-01-04T19:23:48.595Z,37.30
2019-01-04T19:26:29.810Z,38.10
2019-01-04T19:29:11.103Z,37.50
2019-01-04T19:31:52.481Z,37.30
2019-01-04T19:34:33.751Z,37.50
2019-01-04T19:37:15.883Z,37.50
2019-01-04T19:42:57.276Z,37.20
2019-01-04T19:45:38.667Z,37.50
2019-01-04T19:48:20.200Z,37.50
2019-01-04T19:51:01.374Z,37.50
2019-01-04T19:53:43.491Z,37.30
2019-01-04T19:56:23.111Z,37.20
2019-01-04T19:59:04.951Z,37.60
2019-01-04T20:01:46.547Z,37.50
2019-01-04T20:04:27.759Z,37.30
2019-01-04T20:07:28.330Z,37.30
2019-01-04T20:10:28.686Z,37.50
2019-01-04T20:13:35.635Z,37.50
2019-01-04T20:16:35.931Z,37.70
2019-01-04T20:19:37.176Z,38.20
2019-01-04T20:22:38.428Z,37.80
2019-01-04T20:25:24.647Z,37.40
2019-01-04T20:28:25.479Z,37.80
2019-01-04T20:31:26.628Z,37.60
2019-01-04T20:37:26.820Z,37.40
2019-01-04T20:40:13.075Z,37.40
2019-01-04T20:42:58.997Z,37.70
2019-01-04T20:45:59.447Z,37.30
2019-01-04T20:48:43.636Z,37.40
2019-01-04T20:51:44.020Z,37.90
2019-01-04T20:54:45.214Z,37.20
2019-01-04T20:57:46.475Z,37.60
2019-01-04T21:00:41.738Z,37.40
2019-01-04T21:03:42.870Z,37.40
2019-01-04T21:06:43.909Z,37.50
2019-01-04T21:09:27.503Z,37.70
2019-01-04T21:12:28.472Z,37.50
2019-01-04T21:15:14.066Z,37.40
2019-01-04T21:21:16.158Z,37.20
2019-01-04T21:24:00.103Z,37.30
2019-01-04T21:30:00.959Z,37.00
2019-01-04T21:33:01.499Z,37.20
2019-01-04T21:36:03.671Z,37.30
2019-01-04T21:38:47.271Z,37.20
2019-01-04T21:41:48.027Z,37.00
2019-01-04T21:44:29.306Z,37.10
2019-01-04T21:47:30.579Z,37.10
2019-01-04T21:50:31.899Z,37.20
2019-01-04T21:53:14.808Z,37.10
2019-01-04T21:59:15.698Z,36.80
2019-01-04T22:02:17.028Z,36.90
2019-01-04T22:05:17.611Z,36.90
2019-01-04T22:08:01.247Z,36.90
2019-01-04T22:10:47.178Z,36.70
2019-01-04T22:13:47.539Z,36.60
2019-01-04T22:16:48.906Z,36.70
2019-01-04T22:22:49.415Z,36.70
2019-01-04T22:25:50.672Z,36.10
2019-01-04T22:28:34.139Z,36.40
2019-01-04T22:31:35.059Z,36.20
2019-01-04T22:34:35.983Z,36.10
2019-01-04T22:37:36.923Z,36.00
2019-01-04T22:40:38.071Z,35.90
2019-01-04T22:43:21.188Z,35.80
2019-01-04T22:46:07.574Z,35.70
2019-01-04T22:49:08.654Z,36.00
2019-01-04T22:51:55.015Z,35.80
2019-01-04T22:54:38.287Z,35.60
2019-01-04T22:57:24.519Z,35.30
2019-01-04T23:00:07.982Z,35.30
2019-01-04T23:06:08.077Z,35.40
2019-01-04T23:11:53.602Z,35.00
2019-01-04T23:14:54.639Z,34.90
2019-01-04T23:17:40.575Z,34.70
2019-01-04T23:23:25.483Z,34.80
2019-01-04T23:26:09.116Z,34.70
2019-01-04T23:29:10.395Z,34.80
2019-01-04T23:31:53.714Z,34.70
2019-01-04T23:34:40.120Z,34.40
2019-01-04T23:37:40.556Z,34.50
2019-01-04T23:40:41.791Z,34.40
2019-01-04T23:43:23.003Z,34.40
2019-01-04T23:46:09.394Z,34.20
2019-01-04T23:48:52.684Z,34.30
2019-01-04T23:51:53.239Z,34.30
2019-01-04T23:54:54.495Z,34.10
2019-01-04T23:57:55.457Z,34.10
